createdAt,value
2023-02-15T00:00:21.385Z,0.89
2023-02-15T00:02:48.329Z,0.84
2023-02-15T00:05:15.501Z,0.67
2023-02-15T00:07:46.967Z,0.60
2023-02-15T00:10:19.248Z,0.50
2023-02-15T00:16:08.073Z,0.48
2023-02-15T00:18:46.313Z,0.51
2023-02-15T00:21:13.223Z,0.61
2023-02-15T00:26:30.776Z,0.55
2023-02-15T00:29:04.467Z,0.49
2023-02-15T00:31:38.589Z,0.41
2023-02-15T00:34:13.186Z,0.42
2023-02-15T00:36:40.520Z,0.45
2023-02-15T00:39:07.621Z,0.47
2023-02-15T00:41:38.087Z,0.60
2023-02-15T00:44:05.880Z,0.67
2023-02-15T00:46:33.798Z,0.73
2023-02-15T00:49:01.013Z,0.78
2023-02-15T00:51:28.200Z,0.76
2023-02-15T00:53:55.614Z,0.67
2023-02-15T00:56:23.050Z,0.63
2023-02-15T00:58:51.435Z,0.67
2023-02-15T01:01:20.757Z,0.74
2023-02-15T01:03:48.490Z,0.64
2023-02-15T01:06:37.281Z,0.67
2023-02-15T01:09:11.531Z,0.69
2023-02-15T01:11:38.335Z,0.52
2023-02-15T01:15:04.157Z,0.53
2023-02-15T01:17:33.926Z,0.68
2023-02-15T01:20:30.397Z,0.90
2023-02-15T01:23:01.122Z,1.07
2023-02-15T01:25:36.663Z,1.14
2023-02-15T01:28:08.138Z,1.02
2023-02-15T01:30:39.811Z,1.02
2023-02-15T01:33:08.220Z,1.18
2023-02-15T01:35:37.761Z,1.31
2023-02-15T01:38:04.728Z,1.32
2023-02-15T01:40:31.795Z,1.19
2023-02-15T01:42:59.986Z,1.34
2023-02-15T01:45:29.893Z,1.47
2023-02-15T01:48:04.951Z,1.55
2023-02-15T01:50:37.960Z,1.65
2023-02-15T01:53:14.346Z,1.44
2023-02-15T01:55:47.807Z,0.83
2023-02-15T01:58:16.169Z,0.55
2023-02-15T02:00:45.158Z,0.41
2023-02-15T02:03:13.690Z,0.42
2023-02-15T02:05:42.182Z,0.38
2023-02-15T02:08:10.256Z,0.30
2023-02-15T02:10:37.617Z,0.30
2023-02-15T02:13:07.672Z,0.33
2023-02-15T02:15:47.563Z,0.39
2023-02-15T02:18:42.298Z,0.56
2023-02-15T02:22:08.585Z,0.58
2023-02-15T02:25:11.895Z,0.55
2023-02-15T02:27:45.101Z,0.62
2023-02-15T02:30:49.701Z,0.85
2023-02-15T02:33:43.329Z,1.05
2023-02-15T02:36:23.601Z,1.18
2023-02-15T02:39:08.803Z,1.03
2023-02-15T02:41:50.731Z,0.99
2023-02-15T02:44:26.274Z,1.04
2023-02-15T02:47:00.663Z,0.93
2023-02-15T02:49:37.417Z,1.03
2023-02-15T02:52:27.710Z,1.14
2023-02-15T02:54:59.352Z,1.25
2023-02-15T03:00:21.711Z,1.07
2023-02-15T03:02:56.267Z,1.04
2023-02-15T03:05:31.105Z,0.89
2023-02-15T03:08:05.447Z,0.73
2023-02-15T03:11:00.534Z,0.52
2023-02-15T03:13:28.651Z,0.28
2023-02-15T03:16:08.537Z,0.11
2023-02-15T03:18:46.994Z,0.25
2023-02-15T03:21:16.442Z,0.25
2023-02-15T03:23:46.269Z,0.24
2023-02-15T03:26:14.605Z,0.37
2023-02-15T03:28:50.582Z,0.03
2023-02-15T03:31:24.571Z,0.13
2023-02-15T03:33:57.841Z,0.29
2023-02-15T03:36:37.603Z,0.25
2023-02-15T03:39:14.541Z,0.24
2023-02-15T03:41:55.610Z,0.29
2023-02-15T03:44:30.494Z,0.46
2023-02-15T03:47:07.006Z,0.64
2023-02-15T03:49:42.956Z,0.64
2023-02-15T03:52:14.799Z,0.56
2023-02-15T03:54:43.172Z,0.61
2023-02-15T03:57:16.515Z,0.71
2023-02-15T04:03:30.215Z,0.27
2023-02-15T04:06:01.528Z,0.13
2023-02-15T04:08:32.860Z,0.29
2023-02-15T04:11:16.340Z,0.45
2023-02-15T04:13:44.150Z,0.46
2023-02-15T04:16:11.176Z,0.59
2023-02-15T04:18:42.285Z,0.57
2023-02-15T04:21:09.514Z,0.31
2023-02-15T04:23:37.890Z,0.11
2023-02-15T04:26:05.610Z,0.04
2023-02-15T04:28:32.535Z,-0.26
2023-02-15T04:30:59.383Z,-0.44
2023-02-15T04:33:26.553Z,-0.39
2023-02-15T04:35:53.513Z,-0.34
2023-02-15T04:38:20.396Z,-0.27
2023-02-15T04:40:52.575Z,-0.17
2023-02-15T04:43:19.437Z,0.03
2023-02-15T04:45:49.568Z,0.20
2023-02-15T04:48:17.028Z,0.35
2023-02-15T04:50:44.181Z,0.46
2023-02-15T04:53:12.202Z,0.14
2023-02-15T04:55:39.244Z,-0.13
2023-02-15T04:58:07.986Z,-0.12
2023-02-15T05:00:34.850Z,-0.11
2023-02-15T05:03:02.020Z,-0.26
2023-02-15T05:05:28.969Z,-0.35
2023-02-15T05:07:55.819Z,-0.26
2023-02-15T05:10:22.931Z,-0.26
2023-02-15T05:12:50.373Z,-0.14
2023-02-15T05:15:18.982Z,0.04
2023-02-15T05:17:45.837Z,0.03
2023-02-15T05:20:13.065Z,0.11
2023-02-15T05:22:39.910Z,0.04
2023-02-15T05:25:07.304Z,0.03
2023-02-15T05:27:34.288Z,-0.03
2023-02-15T05:30:01.309Z,0.01
2023-02-15T05:32:30.132Z,0.18
2023-02-15T05:34:57.099Z,0.30
2023-02-15T05:37:24.073Z,0.13
2023-02-15T05:39:50.945Z,-0.01
2023-02-15T05:42:17.758Z,-0.23
2023-02-15T05:44:44.626Z,-0.30
2023-02-15T05:47:11.668Z,-0.41
2023-02-15T05:49:39.948Z,-0.30
2023-02-15T05:52:06.944Z,-0.10
2023-02-15T05:54:33.755Z,-0.11
2023-02-15T05:57:00.758Z,0.03
2023-02-15T05:59:27.698Z,0.15
2023-02-15T06:01:55.226Z,-0.19
2023-02-15T06:04:22.308Z,-0.36
2023-02-15T06:06:50.548Z,-0.36
2023-02-15T06:09:17.775Z,-0.48
2023-02-15T06:11:44.986Z,-0.44
2023-02-15T06:14:12.261Z,-0.33
2023-02-15T06:16:39.359Z,-0.36
2023-02-15T06:19:06.256Z,-0.35
2023-02-15T06:21:33.382Z,-0.17
2023-02-15T06:24:01.876Z,0.01
2023-02-15T06:26:29.002Z,0.10
2023-02-15T06:28:55.773Z,0.06
2023-02-15T06:31:23.048Z,0.18
2023-02-15T06:34:48.868Z,0.26
2023-02-15T06:37:15.899Z,0.36
2023-02-15T06:39:44.170Z,0.47
2023-02-15T06:42:18.364Z,0.54
2023-02-15T06:44:46.671Z,0.57
2023-02-15T06:47:13.680Z,0.64
2023-02-15T06:49:40.868Z,0.66
2023-02-15T06:52:22.225Z,0.32
2023-02-15T06:54:53.775Z,0.12
2023-02-15T06:57:29.829Z,0.11
2023-02-15T06:59:56.981Z,0.14
2023-02-15T07:02:24.156Z,0.18
2023-02-15T07:04:51.015Z,0.26
2023-02-15T07:07:18.887Z,0.38
2023-02-15T07:09:47.464Z,0.50
2023-02-15T07:12:16.750Z,0.63
2023-02-15T07:14:43.496Z,1.06
2023-02-15T07:17:32.649Z,1.71
2023-02-15T07:19:57.110Z,1.46
2023-02-15T07:22:25.508Z,1.30
2023-02-15T07:24:52.344Z,1.12
2023-02-15T07:27:20.707Z,0.84
2023-02-15T07:29:47.661Z,0.24
2023-02-15T07:32:15.288Z,0.02
2023-02-15T07:34:42.146Z,-0.10
2023-02-15T07:37:09.025Z,-0.18
2023-02-15T07:39:36.101Z,-0.07
2023-02-15T07:42:03.422Z,-0.07
2023-02-15T07:44:32.937Z,-0.07
2023-02-15T07:47:08.050Z,-0.05
2023-02-15T07:49:35.376Z,-0.02
2023-02-15T07:52:05.154Z,0.11
2023-02-15T07:54:34.390Z,0.03
2023-02-15T07:57:02.646Z,-0.03
2023-02-15T07:59:29.641Z,-0.03
2023-02-15T08:01:57.972Z,-0.09
2023-02-15T08:04:25.684Z,0.03
2023-02-15T08:06:54.500Z,0.08
2023-02-15T08:09:24.369Z,-0.23
2023-02-15T08:11:51.241Z,0.00
2023-02-15T08:14:22.594Z,-0.01
2023-02-15T08:16:51.884Z,0.34
2023-02-15T08:19:23.626Z,0.30
2023-02-15T08:21:53.377Z,0.00
2023-02-15T08:24:23.687Z,0.08
2023-02-15T08:26:51.861Z,0.19
2023-02-15T08:29:22.573Z,0.23
2023-02-15T08:31:53.392Z,0.20
2023-02-15T08:34:21.966Z,0.17
2023-02-15T08:36:48.895Z,0.18
2023-02-15T08:43:09.421Z,0.09
2023-02-15T08:45:39.754Z,0.10
2023-02-15T08:48:08.199Z,0.12
2023-02-15T08:50:39.104Z,0.23
2023-02-15T08:53:10.237Z,0.16
2023-02-15T08:56:28.439Z,0.17
2023-02-15T08:59:47.111Z,0.24
2023-02-15T09:02:17.080Z,0.10
2023-02-15T09:10:28.945Z,-0.04
2023-02-15T09:18:16.886Z,-0.06
2023-02-15T09:20:46.686Z,0.01
2023-02-15T09:23:25.495Z,0.14
2023-02-15T09:26:12.146Z,0.42
2023-02-15T09:28:41.611Z,0.47
2023-02-15T09:31:13.930Z,0.38
2023-02-15T09:34:02.390Z,0.60
2023-02-15T09:36:41.178Z,0.62
2023-02-15T09:39:43.209Z,0.43
2023-02-15T09:42:47.183Z,0.61
2023-02-15T09:45:28.867Z,0.74
2023-02-15T09:48:20.488Z,0.75
2023-02-15T09:51:13.453Z,0.82
2023-02-15T09:54:04.510Z,0.86
2023-02-15T09:57:21.630Z,1.05
2023-02-15T10:00:08.548Z,1.22
2023-02-15T10:10:24.982Z,1.71
2023-02-15T10:16:42.107Z,1.95
2023-02-15T10:19:41.840Z,1.62
2023-02-15T10:26:01.238Z,1.43
2023-02-15T10:29:10.509Z,1.36
2023-02-15T10:32:40.893Z,1.30
2023-02-15T10:36:28.706Z,0.95
2023-02-15T10:39:39.424Z,0.93
2023-02-15T10:42:29.180Z,1.04
2023-02-15T10:45:17.525Z,1.03
2023-02-15T10:49:22.436Z,1.18
2023-02-15T10:52:52.745Z,1.49
2023-02-15T11:00:24.253Z,2.35
2023-02-15T11:07:25.425Z,2.90
2023-02-15T11:11:33.734Z,2.90
2023-02-15T11:15:36.968Z,2.99
2023-02-15T11:23:06.835Z,3.34
2023-02-15T11:25:38.345Z,3.38
2023-02-15T11:29:00.606Z,3.59
2023-02-15T11:32:31.237Z,3.91
2023-02-15T11:35:40.193Z,4.15
2023-02-15T11:38:23.112Z,4.48
2023-02-15T11:41:21.354Z,4.71
2023-02-15T11:43:57.590Z,4.80
2023-02-15T11:46:25.150Z,4.57
2023-02-15T11:48:53.599Z,4.56
2023-02-15T11:51:24.217Z,4.37
2023-02-15T11:53:52.599Z,4.37
2023-02-15T11:56:24.743Z,4.33
2023-02-15T11:58:57.891Z,4.11
2023-02-15T12:01:33.266Z,4.00
2023-02-15T12:04:11.383Z,4.24
2023-02-15T12:06:47.590Z,4.57
2023-02-15T12:09:30.797Z,4.76
2023-02-15T12:12:23.022Z,4.88
2023-02-15T12:15:08.786Z,4.85
2023-02-15T12:17:42.360Z,4.66
2023-02-15T12:20:31.885Z,5.00
2023-02-15T12:23:03.789Z,5.47
2023-02-15T12:25:38.362Z,5.85
2023-02-15T12:28:23.877Z,6.21
2023-02-15T12:30:54.333Z,6.41
2023-02-15T12:33:30.891Z,6.30
2023-02-15T12:36:10.411Z,6.33
2023-02-15T12:38:38.665Z,6.59
2023-02-15T12:41:25.206Z,6.70
2023-02-15T12:44:14.302Z,6.81
2023-02-15T12:46:59.008Z,6.96
2023-02-15T12:49:27.417Z,7.06
2023-02-15T12:51:57.781Z,7.16
2023-02-15T13:01:17.862Z,7.08
2023-02-15T13:03:59.108Z,6.54
2023-02-15T13:06:30.782Z,6.54
2023-02-15T13:09:14.006Z,6.92
2023-02-15T13:11:47.611Z,7.12
2023-02-15T13:14:21.887Z,7.20
2023-02-15T13:16:59.943Z,7.23
2023-02-15T13:19:45.006Z,7.12
2023-02-15T13:22:17.777Z,7.00
2023-02-15T13:24:59.113Z,7.09
2023-02-15T13:28:18.231Z,7.18
2023-02-15T13:30:49.872Z,7.21
2023-02-15T13:33:26.059Z,7.26
2023-02-15T13:36:35.964Z,7.29
2023-02-15T13:39:18.929Z,7.20
2023-02-15T13:42:02.160Z,7.29
2023-02-15T13:45:00.308Z,6.85
2023-02-15T13:47:46.293Z,6.32
2023-02-15T13:50:39.143Z,6.28
2023-02-15T13:53:36.502Z,6.51
2023-02-15T13:56:17.893Z,6.38
2023-02-15T13:59:11.003Z,6.50
2023-02-15T14:01:53.202Z,6.68
2023-02-15T14:05:16.091Z,6.74
2023-02-15T14:08:00.924Z,6.83
2023-02-15T14:10:46.404Z,6.81
2023-02-15T14:14:07.442Z,6.89
2023-02-15T14:17:05.769Z,6.93
2023-02-15T14:19:41.848Z,6.83
2023-02-15T14:22:25.431Z,6.73
2023-02-15T14:25:17.743Z,6.86
2023-02-15T14:28:00.137Z,6.94
2023-02-15T14:30:37.847Z,6.99
2023-02-15T14:33:26.362Z,7.03
2023-02-15T14:35:56.743Z,6.98
2023-02-15T14:38:48.064Z,7.01
2023-02-15T14:41:26.967Z,7.01
2023-02-15T14:44:09.153Z,6.94
2023-02-15T14:47:13.794Z,6.89
2023-02-15T14:49:49.241Z,6.94
2023-02-15T14:52:16.068Z,6.99
2023-02-15T14:55:01.516Z,6.95
2023-02-15T14:57:35.727Z,6.93
2023-02-15T15:00:47.230Z,7.00
2023-02-15T15:03:25.822Z,6.97
2023-02-15T15:06:02.240Z,6.95
2023-02-15T15:08:38.108Z,6.92
2023-02-15T15:11:44.193Z,6.94
2023-02-15T15:14:42.276Z,6.90
2023-02-15T15:17:22.601Z,6.86
2023-02-15T15:20:01.322Z,6.82
2023-02-15T15:22:32.696Z,6.78
2023-02-15T15:25:01.080Z,6.80
2023-02-15T15:27:50.516Z,6.78
2023-02-15T15:30:49.933Z,6.78
2023-02-15T15:33:55.291Z,6.75
2023-02-15T15:37:17.020Z,6.74
2023-02-15T15:40:36.994Z,6.65
2023-02-15T15:44:05.489Z,6.56
2023-02-15T15:47:01.590Z,6.52
2023-02-15T15:49:35.607Z,6.49
2023-02-15T15:52:11.567Z,6.50
2023-02-15T15:54:44.990Z,6.50
2023-02-15T15:57:25.247Z,6.50
2023-02-15T15:59:55.072Z,6.47
2023-02-15T16:02:22.529Z,6.46
2023-02-15T16:04:50.103Z,6.45
2023-02-15T16:07:27.267Z,6.42
2023-02-15T16:10:00.397Z,6.41
2023-02-15T16:12:32.953Z,6.40
2023-02-15T16:15:14.174Z,6.32
2023-02-15T16:17:45.916Z,6.29
2023-02-15T16:20:20.999Z,6.24
2023-02-15T16:22:53.551Z,6.15
2023-02-15T16:25:42.920Z,6.13
2023-02-15T16:28:13.776Z,6.06
2023-02-15T16:30:41.885Z,6.00
2023-02-15T16:33:11.695Z,5.96
2023-02-15T16:35:41.903Z,5.92
2023-02-15T16:38:11.708Z,5.87
2023-02-15T16:40:53.698Z,5.80
2023-02-15T16:43:29.565Z,5.75
2023-02-15T16:46:05.968Z,5.65
2023-02-15T16:48:41.189Z,5.59
2023-02-15T16:51:09.454Z,5.53
2023-02-15T16:53:38.151Z,5.49
2023-02-15T16:56:06.812Z,5.41
2023-02-15T16:58:44.003Z,5.32
2023-02-15T17:01:15.435Z,5.20
2023-02-15T17:03:43.640Z,5.03
2023-02-15T17:06:22.301Z,4.98
2023-02-15T17:08:50.470Z,4.90
2023-02-15T17:11:21.006Z,4.82
2023-02-15T17:14:19.807Z,4.75
2023-02-15T17:16:50.371Z,4.63
2023-02-15T17:19:26.599Z,4.56
2023-02-15T17:21:57.053Z,4.49
2023-02-15T17:24:36.493Z,4.46
2023-02-15T17:27:12.954Z,4.38
2023-02-15T17:29:47.580Z,4.28
2023-02-15T17:32:20.399Z,4.12
2023-02-15T17:35:07.822Z,3.94
2023-02-15T17:37:48.162Z,3.92
2023-02-15T17:40:24.533Z,3.80
2023-02-15T17:42:52.368Z,3.70
2023-02-15T17:45:23.299Z,3.61
2023-02-15T17:47:51.103Z,3.53
2023-02-15T17:50:23.317Z,3.31
2023-02-15T17:53:00.169Z,3.33
2023-02-15T17:55:27.615Z,3.38
2023-02-15T17:57:54.408Z,3.32
2023-02-15T18:00:22.806Z,3.13
2023-02-15T18:02:49.717Z,3.03
2023-02-15T18:05:17.319Z,2.95
2023-02-15T18:07:44.437Z,2.89
2023-02-15T18:10:15.496Z,2.78
2023-02-15T18:12:42.547Z,2.72
2023-02-15T18:15:12.330Z,2.69
2023-02-15T18:17:45.652Z,2.64
2023-02-15T18:20:20.111Z,2.60
2023-02-15T18:22:47.951Z,2.64
2023-02-15T18:25:24.283Z,2.68
2023-02-15T18:27:52.824Z,2.70
2023-02-15T18:30:24.574Z,2.76
2023-02-15T18:32:56.107Z,2.79
2023-02-15T18:35:28.364Z,2.68
2023-02-15T18:37:56.161Z,2.62
2023-02-15T18:40:27.974Z,2.58
2023-02-15T18:43:08.504Z,2.42
2023-02-15T18:45:57.988Z,2.30
2023-02-15T18:48:27.192Z,2.23
2023-02-15T18:51:15.493Z,2.10
2023-02-15T18:54:02.377Z,2.04
2023-02-15T19:04:01.781Z,2.02
2023-02-15T19:06:29.520Z,2.02
2023-02-15T19:08:56.449Z,2.08
2023-02-15T19:11:24.375Z,2.16
2023-02-15T19:13:52.612Z,2.15
2023-02-15T19:16:37.327Z,2.10
2023-02-15T19:19:08.825Z,2.04
2023-02-15T19:21:36.194Z,1.85
2023-02-15T19:24:08.327Z,1.74
2023-02-15T19:27:25.607Z,1.70
2023-02-15T19:29:54.661Z,1.68
2023-02-15T19:32:22.061Z,1.72
2023-02-15T19:34:51.579Z,1.81
2023-02-15T19:37:26.413Z,1.85
2023-02-15T19:39:53.881Z,1.89
2023-02-15T19:42:23.976Z,1.79
2023-02-15T19:44:53.914Z,1.68
2023-02-15T19:49:00.866Z,1.59
2023-02-15T19:51:46.712Z,1.53
2023-02-15T19:54:29.058Z,1.53
2023-02-15T19:56:57.398Z,1.56
2023-02-15T19:59:27.664Z,1.67
2023-02-15T20:01:55.611Z,1.74
2023-02-15T20:04:23.201Z,1.86
2023-02-15T20:06:55.568Z,1.92
2023-02-15T20:09:26.238Z,2.00
2023-02-15T20:11:53.497Z,2.04
2023-02-15T20:14:21.433Z,2.01
2023-02-15T20:16:53.069Z,1.90
2023-02-15T20:19:34.988Z,1.84
2023-02-15T20:22:03.622Z,1.70
2023-02-15T20:25:13.022Z,1.54
2023-02-15T20:27:40.492Z,1.45
2023-02-15T20:30:16.167Z,1.45
2023-02-15T20:32:43.209Z,1.53
2023-02-15T20:35:14.916Z,1.62
2023-02-15T20:37:45.479Z,1.72
2023-02-15T20:40:20.119Z,1.80
2023-02-15T20:42:47.246Z,1.84
2023-02-15T20:45:20.972Z,1.88
2023-02-15T20:47:49.966Z,1.93
2023-02-15T20:50:20.788Z,1.97
2023-02-15T20:52:53.444Z,2.00
2023-02-15T20:55:24.318Z,1.99
2023-02-15T20:57:52.079Z,1.96
2023-02-15T21:00:22.439Z,1.95
2023-02-15T21:02:51.789Z,1.96
2023-02-15T21:05:21.852Z,1.99
2023-02-15T21:07:52.607Z,1.98
2023-02-15T21:10:22.611Z,1.94
2023-02-15T21:12:53.964Z,1.77
2023-02-15T21:15:30.101Z,1.72
2023-02-15T21:18:00.576Z,1.71
2023-02-15T21:20:30.819Z,1.67
2023-02-15T21:23:04.693Z,1.58
2023-02-15T21:25:36.376Z,1.58
2023-02-15T21:28:04.670Z,1.59
2023-02-15T21:30:32.845Z,1.59
2023-02-15T21:33:00.105Z,1.65
2023-02-15T21:35:31.497Z,1.69
2023-02-15T21:37:59.837Z,1.73
2023-02-15T21:40:30.024Z,1.76
2023-02-15T21:42:59.631Z,1.79
2023-02-15T21:45:26.550Z,1.80
2023-02-15T21:48:00.936Z,1.83
2023-02-15T21:50:32.068Z,1.79
2023-02-15T21:53:00.814Z,1.84
2023-02-15T21:55:27.691Z,1.85
2023-02-15T21:57:54.973Z,1.84
2023-02-15T22:00:24.915Z,1.84
2023-02-15T22:02:55.685Z,1.82
2023-02-15T22:05:27.337Z,1.76
2023-02-15T22:07:54.195Z,1.69
2023-02-15T22:10:23.920Z,1.65
2023-02-15T22:13:05.291Z,1.57
2023-02-15T22:15:37.477Z,1.52
2023-02-15T22:18:05.796Z,1.50
2023-02-15T22:20:32.628Z,1.47
2023-02-15T22:23:44.710Z,1.46
2023-02-15T22:26:20.284Z,1.05
2023-02-15T22:28:47.228Z,0.81
2023-02-15T22:31:20.589Z,0.92
2023-02-15T22:33:47.536Z,1.04
2023-02-15T22:36:23.899Z,1.10
2023-02-15T22:38:50.729Z,1.15
2023-02-15T22:41:30.029Z,1.04
2023-02-15T22:43:58.061Z,1.01
2023-02-15T22:46:26.237Z,1.00
2023-02-15T22:48:53.701Z,0.91
2023-02-15T22:51:23.279Z,0.93
2023-02-15T22:53:50.916Z,0.94
2023-02-15T22:56:26.770Z,0.97
2023-02-15T22:59:00.431Z,0.97
2023-02-15T23:01:31.988Z,1.00
2023-02-15T23:04:00.598Z,0.91
2023-02-15T23:06:29.875Z,0.90
2023-02-15T23:08:56.691Z,1.00
2023-02-15T23:11:24.850Z,0.98
2023-02-15T23:13:51.717Z,1.00
2023-02-15T23:16:19.155Z,1.01
2023-02-15T23:18:47.499Z,1.04
2023-02-15T23:21:21.260Z,1.05
2023-02-15T23:23:52.362Z,1.00
2023-02-15T23:26:26.927Z,0.99
2023-02-15T23:28:56.788Z,0.94
2023-02-15T23:31:28.033Z,0.90
2023-02-15T23:33:56.168Z,0.86
2023-02-15T23:36:30.409Z,0.56
2023-02-15T23:39:00.757Z,0.37
2023-02-15T23:41:30.536Z,0.34
2023-02-15T23:44:02.773Z,0.07
2023-02-15T23:46:39.429Z,-0.07
2023-02-15T23:49:10.759Z,-0.04
2023-02-15T23:51:37.528Z,0.09
2023-02-15T23:54:04.934Z,0.13
2023-02-15T23:56:33.298Z,0.24
2023-02-15T23:59:01.533Z,0.32
